createdAt,value
2022-09-11T00:01:21.730Z,18.82
2022-09-11T00:03:49.823Z,18.79
2022-09-11T00:06:29.212Z,18.82
2022-09-11T00:09:01.386Z,18.81
2022-09-11T00:11:36.169Z,18.79
2022-09-11T00:14:03.769Z,18.77
2022-09-11T00:16:35.810Z,18.76
2022-09-11T00:19:07.745Z,18.74
2022-09-11T00:21:36.126Z,18.71
2022-09-11T00:24:04.982Z,18.69
2022-09-11T00:26:33.150Z,18.70
2022-09-11T00:29:02.449Z,18.69
2022-09-11T00:31:30.805Z,18.69
2022-09-11T00:33:59.610Z,18.68
2022-09-11T00:36:32.653Z,18.66
2022-09-11T00:39:00.565Z,18.65
2022-09-11T00:41:28.821Z,18.64
2022-09-11T00:43:58.262Z,18.62
2022-09-11T00:46:31.814Z,18.60
2022-09-11T00:49:02.168Z,18.57
2022-09-11T00:51:34.377Z,18.55
2022-09-11T00:54:04.015Z,18.54
2022-09-11T00:56:36.513Z,18.53
2022-09-11T00:59:05.029Z,18.51
2022-09-11T01:01:34.119Z,18.50
2022-09-11T01:04:04.700Z,18.50
2022-09-11T01:06:33.157Z,18.49
2022-09-11T01:09:00.881Z,18.49
2022-09-11T01:11:42.110Z,18.47
2022-09-11T01:14:15.870Z,18.47
2022-09-11T01:16:50.927Z,18.48
2022-09-11T01:19:37.787Z,18.42
2022-09-11T01:22:10.809Z,18.39
2022-09-11T01:24:48.339Z,18.36
2022-09-11T01:27:22.731Z,18.35
2022-09-11T01:29:59.759Z,18.32
2022-09-11T01:32:36.559Z,18.28
2022-09-11T01:35:13.305Z,18.26
2022-09-11T01:37:48.055Z,18.24
2022-09-11T01:40:24.623Z,18.20
2022-09-11T01:42:56.516Z,18.20
2022-09-11T01:45:25.817Z,18.18
2022-09-11T01:47:55.694Z,18.16
2022-09-11T01:50:25.717Z,18.15
2022-09-11T01:52:59.515Z,18.10
2022-09-11T01:55:35.277Z,18.07
2022-09-11T01:58:07.732Z,18.05
2022-09-11T02:00:37.635Z,18.02
2022-09-11T02:03:12.979Z,17.99
2022-09-11T02:05:47.420Z,18.00
2022-09-11T02:08:23.901Z,18.00
2022-09-11T02:10:54.732Z,18.01
2022-09-11T02:13:30.262Z,18.00
2022-09-11T02:16:05.936Z,18.00
2022-09-11T02:18:45.565Z,17.99
2022-09-11T02:21:14.430Z,17.99
2022-09-11T02:23:42.874Z,17.98
2022-09-11T02:26:13.568Z,17.98
2022-09-11T02:28:41.622Z,17.95
2022-09-11T02:31:10.301Z,17.97
2022-09-11T02:33:39.539Z,17.96
2022-09-11T02:36:21.990Z,17.94
2022-09-11T02:38:56.039Z,17.93
2022-09-11T02:41:31.041Z,17.95
2022-09-11T02:44:04.954Z,17.95
2022-09-11T02:46:35.979Z,17.94
2022-09-11T02:49:08.638Z,17.95
2022-09-11T02:51:46.619Z,17.95
2022-09-11T02:54:21.409Z,17.94
2022-09-11T02:56:58.316Z,17.94
2022-09-11T02:59:32.261Z,17.92
2022-09-11T03:02:03.367Z,17.91
2022-09-11T03:04:31.756Z,17.91
2022-09-11T03:07:01.100Z,17.89
2022-09-11T03:09:29.305Z,17.88
2022-09-11T03:11:56.712Z,17.88
2022-09-11T03:14:24.186Z,17.88
2022-09-11T03:16:52.534Z,17.88
2022-09-11T03:19:21.409Z,17.88
2022-09-11T03:21:49.850Z,17.87
2022-09-11T03:24:17.417Z,17.87
2022-09-11T03:26:44.977Z,17.85
2022-09-11T03:29:12.636Z,17.84
2022-09-11T03:31:40.867Z,17.85
2022-09-11T03:34:09.273Z,17.83
2022-09-11T03:36:37.645Z,17.85
2022-09-11T03:39:05.697Z,17.85
2022-09-11T03:41:33.174Z,17.85
2022-09-11T03:44:00.661Z,17.84
2022-09-11T03:46:28.324Z,17.84
2022-09-11T03:48:55.702Z,17.82
2022-09-11T03:51:23.212Z,17.81
2022-09-11T03:53:50.464Z,17.82
2022-09-11T03:56:17.941Z,17.81
2022-09-11T03:58:45.503Z,17.81
2022-09-11T04:01:15.685Z,17.82
2022-09-11T04:03:43.338Z,17.82
2022-09-11T04:06:11.050Z,17.84
2022-09-11T04:08:40.456Z,17.87
2022-09-11T04:11:08.166Z,17.88
2022-09-11T04:13:37.560Z,17.88
2022-09-11T04:16:09.021Z,17.86
2022-09-11T04:18:38.607Z,17.85
2022-09-11T04:21:07.253Z,17.84
2022-09-11T04:23:34.951Z,17.84
2022-09-11T04:26:02.422Z,17.83
2022-09-11T04:28:31.531Z,17.81
2022-09-11T04:31:02.773Z,17.81
2022-09-11T04:33:30.385Z,17.79
2022-09-11T04:35:57.501Z,17.78
2022-09-11T04:38:25.108Z,17.77
2022-09-11T04:40:53.782Z,17.81
2022-09-11T04:43:21.034Z,17.80
2022-09-11T04:45:48.242Z,17.79
2022-09-11T04:48:15.542Z,17.78
2022-09-11T04:50:42.896Z,17.76
2022-09-11T04:53:10.262Z,17.75
2022-09-11T04:55:37.622Z,17.75
2022-09-11T04:58:04.822Z,17.76
2022-09-11T05:00:32.810Z,17.76
2022-09-11T05:03:00.189Z,17.74
2022-09-11T05:05:27.491Z,17.72
2022-09-11T05:07:54.654Z,17.71
2022-09-11T05:10:21.930Z,17.71
2022-09-11T05:12:49.167Z,17.70
2022-09-11T05:15:16.654Z,17.70
2022-09-11T05:17:43.911Z,17.70
2022-09-11T05:20:12.114Z,17.68
2022-09-11T05:22:39.393Z,17.68
2022-09-11T05:25:07.358Z,17.66
2022-09-11T05:27:35.434Z,17.67
2022-09-11T05:30:02.910Z,17.67
2022-09-11T05:32:30.098Z,17.66
2022-09-11T05:34:57.302Z,17.68
2022-09-11T05:37:25.095Z,17.68
2022-09-11T05:39:52.548Z,17.67
2022-09-11T05:42:20.869Z,17.66
2022-09-11T05:44:48.665Z,17.65
2022-09-11T05:47:16.021Z,17.65
2022-09-11T05:49:43.529Z,17.64
2022-09-11T05:52:11.222Z,17.66
2022-09-11T05:54:38.416Z,17.66
2022-09-11T05:57:07.977Z,17.66
2022-09-11T05:59:35.483Z,17.68
2022-09-11T06:02:03.816Z,17.70
2022-09-11T06:04:31.191Z,17.71
2022-09-11T06:06:58.357Z,17.71
2022-09-11T06:09:25.694Z,17.69
2022-09-11T06:11:53.789Z,17.69
2022-09-11T06:14:22.033Z,17.68
2022-09-11T06:16:49.526Z,17.68
2022-09-11T06:19:17.318Z,17.67
2022-09-11T06:21:45.132Z,17.70
2022-09-11T06:24:12.407Z,17.69
2022-09-11T06:26:39.740Z,17.69
2022-09-11T06:29:08.030Z,17.71
2022-09-11T06:31:35.520Z,17.71
2022-09-11T06:34:02.899Z,17.71
2022-09-11T06:36:31.915Z,17.71
2022-09-11T06:38:59.579Z,17.71
2022-09-11T06:41:27.708Z,17.74
2022-09-11T06:43:55.070Z,17.75
2022-09-11T06:46:24.951Z,17.76
2022-09-11T06:48:52.918Z,17.76
2022-09-11T06:51:22.063Z,17.77
2022-09-11T06:53:53.840Z,17.78
2022-09-11T06:56:21.473Z,17.80
2022-09-11T06:58:48.986Z,17.83
2022-09-11T07:01:18.687Z,17.83
2022-09-11T07:03:47.877Z,17.83
2022-09-11T07:06:17.837Z,17.85
2022-09-11T07:08:52.722Z,17.85
2022-09-11T07:11:20.242Z,17.86
2022-09-11T07:13:47.903Z,17.90
2022-09-11T07:16:15.341Z,17.90
2022-09-11T07:18:44.989Z,17.90
2022-09-11T07:21:16.743Z,17.92
2022-09-11T07:23:48.529Z,17.94
2022-09-11T07:26:17.039Z,17.95
2022-09-11T07:28:44.662Z,17.96
2022-09-11T07:31:19.991Z,17.99
2022-09-11T07:33:49.455Z,18.03
2022-09-11T07:36:20.182Z,18.05
2022-09-11T07:38:49.140Z,18.06
2022-09-11T07:41:18.432Z,18.08
2022-09-11T07:43:46.001Z,18.11
2022-09-11T07:46:14.374Z,18.14
2022-09-11T07:48:43.823Z,18.18
2022-09-11T07:51:13.801Z,18.18
2022-09-11T07:53:44.807Z,18.22
2022-09-11T07:56:15.381Z,18.25
2022-09-11T07:58:43.891Z,18.28
2022-09-11T08:01:14.468Z,18.33
2022-09-11T08:03:43.483Z,18.35
2022-09-11T08:06:16.068Z,18.41
2022-09-11T08:08:47.413Z,18.44
2022-09-11T08:11:17.594Z,18.46
2022-09-11T08:13:51.368Z,18.49
2022-09-11T08:16:19.963Z,18.51
2022-09-11T08:18:48.551Z,18.55
2022-09-11T08:21:17.151Z,18.56
2022-09-11T08:23:45.772Z,18.59
2022-09-11T08:26:16.112Z,18.64
2022-09-11T08:28:45.293Z,18.66
2022-09-11T08:31:13.942Z,18.69
2022-09-11T08:33:41.612Z,18.74
2022-09-11T08:36:11.489Z,18.77
2022-09-11T08:38:38.852Z,18.82
2022-09-11T08:41:11.936Z,18.84
2022-09-11T08:43:51.173Z,18.90
2022-09-11T08:46:22.297Z,18.94
2022-09-11T08:48:55.862Z,18.97
2022-09-11T08:51:23.706Z,19.04
2022-09-11T08:53:51.942Z,19.07
2022-09-11T08:56:22.913Z,19.13
2022-09-11T08:58:56.450Z,19.18
2022-09-11T09:01:26.650Z,19.25
2022-09-11T09:04:00.387Z,19.28
2022-09-11T09:06:40.359Z,19.29
2022-09-11T09:09:15.702Z,19.29
2022-09-11T09:11:56.385Z,19.31
2022-09-11T09:14:30.105Z,19.32
2022-09-11T09:17:00.866Z,19.34
2022-09-11T09:19:37.163Z,19.36
2022-09-11T09:22:10.729Z,19.38
2022-09-11T09:24:46.319Z,19.40
2022-09-11T09:27:20.118Z,19.46
2022-09-11T09:29:53.241Z,19.53
2022-09-11T09:32:28.065Z,19.59
2022-09-11T09:35:01.927Z,19.66
2022-09-11T09:37:29.463Z,19.70
2022-09-11T09:39:57.172Z,19.75
2022-09-11T09:42:30.570Z,19.82
2022-09-11T09:45:04.349Z,19.92
2022-09-11T09:47:33.470Z,19.98
2022-09-11T09:50:01.102Z,20.03
2022-09-11T09:52:36.509Z,20.08
2022-09-11T09:55:07.588Z,20.16
2022-09-11T09:57:37.178Z,20.24
2022-09-11T10:00:07.249Z,20.28
2022-09-11T10:02:40.957Z,20.35
2022-09-11T10:05:15.551Z,20.37
2022-09-11T10:07:49.009Z,20.39
2022-09-11T10:10:22.091Z,20.41
2022-09-11T10:12:49.943Z,20.44
2022-09-11T10:15:22.909Z,20.48
2022-09-11T10:17:50.949Z,20.53
2022-09-11T10:20:19.028Z,20.55
2022-09-11T10:22:47.114Z,20.58
2022-09-11T10:25:16.349Z,20.62
2022-09-11T10:27:52.831Z,20.67
2022-09-11T10:30:26.605Z,20.71
2022-09-11T10:32:54.012Z,20.75
2022-09-11T10:35:24.341Z,20.79
2022-09-11T10:38:05.790Z,20.84
2022-09-11T10:40:33.129Z,20.87
2022-09-11T10:43:00.498Z,20.92
2022-09-11T10:45:28.017Z,20.96
2022-09-11T10:47:55.308Z,21.00
2022-09-11T10:50:24.773Z,21.05
2022-09-11T10:52:58.259Z,21.04
2022-09-11T10:55:31.574Z,21.06
2022-09-11T10:58:08.053Z,21.04
2022-09-11T11:00:36.370Z,21.06
2022-09-11T11:03:11.562Z,21.09
2022-09-11T11:05:42.521Z,21.09
2022-09-11T11:08:16.208Z,21.07
2022-09-11T11:10:51.482Z,21.07
2022-09-11T11:13:23.600Z,21.06
2022-09-11T11:15:58.019Z,21.07
2022-09-11T11:18:31.833Z,21.07
2022-09-11T11:21:00.828Z,21.06
2022-09-11T11:23:31.886Z,21.08
2022-09-11T11:26:02.858Z,21.06
2022-09-11T11:28:34.411Z,21.06
2022-09-11T11:31:12.417Z,21.08
2022-09-11T11:33:44.112Z,21.08
2022-09-11T11:36:23.218Z,21.10
2022-09-11T11:39:00.815Z,21.12
2022-09-11T11:41:44.740Z,21.12
2022-09-11T11:44:18.861Z,21.13
2022-09-11T11:46:52.560Z,21.15
2022-09-11T11:49:28.076Z,21.21
2022-09-11T11:52:00.534Z,21.29
2022-09-11T11:54:36.573Z,21.33
2022-09-11T11:59:56.360Z,21.40
2022-09-11T12:02:34.296Z,21.47
2022-09-11T12:05:07.999Z,21.54
2022-09-11T12:07:39.098Z,21.61
2022-09-11T12:12:45.744Z,21.71
2022-09-11T12:15:21.524Z,21.76
2022-09-11T12:18:00.557Z,21.80
2022-09-11T12:22:59.850Z,21.85
2022-09-11T12:25:31.189Z,21.92
2022-09-11T12:28:27.909Z,21.94
2022-09-11T12:30:59.386Z,21.97
2022-09-11T12:33:43.855Z,21.97
2022-09-11T12:36:13.161Z,21.96
2022-09-11T12:41:30.657Z,21.94
2022-09-11T12:43:58.171Z,21.92
2022-09-11T12:46:28.176Z,21.92
2022-09-11T12:49:21.091Z,21.90
2022-09-11T12:51:54.840Z,21.88
2022-09-11T12:54:23.620Z,21.87
2022-09-11T13:02:00.302Z,21.97
2022-09-11T13:04:31.721Z,22.01
2022-09-11T13:07:05.115Z,22.03
2022-09-11T13:12:24.960Z,22.03
2022-09-11T13:14:59.601Z,22.05
2022-09-11T13:17:37.839Z,22.10
2022-09-11T13:20:08.058Z,22.15
2022-09-11T13:22:35.582Z,22.19
2022-09-11T13:25:12.265Z,22.21
2022-09-11T13:27:43.730Z,22.18
2022-09-11T13:30:15.096Z,22.17
2022-09-11T13:32:44.495Z,22.21
2022-09-11T13:35:17.324Z,22.27
2022-09-11T13:37:53.755Z,22.32
2022-09-11T13:40:28.369Z,22.35
2022-09-11T13:42:56.545Z,22.37
2022-09-11T13:45:24.575Z,22.40
2022-09-11T13:47:51.513Z,22.47
2022-09-11T13:50:21.054Z,22.51
2022-09-11T13:52:49.446Z,22.48
2022-09-11T13:55:19.857Z,22.49
2022-09-11T13:57:57.870Z,22.46
2022-09-11T14:03:13.295Z,22.36
2022-09-11T14:05:50.474Z,22.33
2022-09-11T14:08:25.034Z,22.31
2022-09-11T14:10:56.592Z,22.30
2022-09-11T14:13:34.062Z,22.31
2022-09-11T14:16:05.763Z,22.29
2022-09-11T14:18:46.915Z,22.30
2022-09-11T14:21:18.895Z,22.28
2022-09-11T14:23:51.596Z,22.28
2022-09-11T14:26:22.295Z,22.31
2022-09-11T14:29:06.615Z,22.31
2022-09-11T14:31:37.430Z,22.34
2022-09-11T14:34:16.174Z,22.34
2022-09-11T14:36:48.096Z,22.31
2022-09-11T14:39:21.939Z,22.30
2022-09-11T14:41:49.098Z,22.27
2022-09-11T14:44:17.947Z,22.24
2022-09-11T14:46:45.070Z,22.23
2022-09-11T14:49:13.149Z,22.23
2022-09-11T14:54:14.369Z,22.27
2022-09-11T14:56:41.790Z,22.31
2022-09-11T14:59:08.925Z,22.39
2022-09-11T15:01:36.835Z,22.46
2022-09-11T15:04:04.304Z,22.51
2022-09-11T15:06:31.721Z,22.57
2022-09-11T15:09:01.947Z,22.64
2022-09-11T15:14:15.918Z,22.67
2022-09-11T15:16:44.810Z,22.70
2022-09-11T15:24:06.146Z,22.74
2022-09-11T15:26:34.647Z,22.78
2022-09-11T15:29:01.996Z,22.80
2022-09-11T15:31:32.417Z,22.80
2022-09-11T15:33:59.716Z,22.79
2022-09-11T15:36:27.640Z,22.77
2022-09-11T15:38:55.175Z,22.74
2022-09-11T15:41:22.995Z,22.71
2022-09-11T15:43:51.027Z,22.69
2022-09-11T15:49:02.289Z,22.61
2022-09-11T15:51:30.376Z,22.59
2022-09-11T15:54:21.533Z,22.57
2022-09-11T15:56:48.615Z,22.54
2022-09-11T15:59:15.913Z,22.54
2022-09-11T16:01:44.748Z,22.54
2022-09-11T16:04:14.755Z,22.50
2022-09-11T16:06:44.072Z,22.51
2022-09-11T16:09:16.537Z,22.50
2022-09-11T16:11:46.025Z,22.48
2022-09-11T16:14:17.455Z,22.45
2022-09-11T16:16:47.443Z,22.41
2022-09-11T16:19:15.946Z,22.41
2022-09-11T16:21:43.806Z,22.40
2022-09-11T16:24:11.958Z,22.39
2022-09-11T16:26:39.436Z,22.36
2022-09-11T16:31:35.309Z,22.33
2022-09-11T16:34:04.691Z,22.32
2022-09-11T16:36:39.015Z,22.29
2022-09-11T16:39:09.465Z,22.26
2022-09-11T16:41:37.535Z,22.23
2022-09-11T16:44:06.803Z,22.21
2022-09-11T16:46:34.765Z,22.17
2022-09-11T16:49:02.371Z,22.17
2022-09-11T16:51:30.129Z,22.17
2022-09-11T16:56:26.288Z,22.06
2022-09-11T16:58:55.383Z,22.05
2022-09-11T17:01:26.517Z,22.04
2022-09-11T17:03:56.303Z,22.02
2022-09-11T17:06:30.481Z,22.01
2022-09-11T17:09:00.708Z,21.98
2022-09-11T17:11:30.897Z,21.96
2022-09-11T17:14:00.304Z,21.95
2022-09-11T17:16:32.609Z,21.94
2022-09-11T17:19:02.160Z,21.92
2022-09-11T17:21:36.087Z,21.91
2022-09-11T17:24:03.906Z,21.89
2022-09-11T17:26:32.084Z,21.88
2022-09-11T17:29:03.417Z,21.84
2022-09-11T17:31:31.449Z,21.83
2022-09-11T17:33:58.596Z,21.81
2022-09-11T17:36:25.644Z,21.81
2022-09-11T17:38:53.188Z,21.77
2022-09-11T17:41:21.445Z,21.76
2022-09-11T17:43:49.336Z,21.73
2022-09-11T17:46:20.185Z,21.72
2022-09-11T17:48:48.525Z,21.70
2022-09-11T17:51:20.375Z,21.70
2022-09-11T17:53:53.644Z,21.69
2022-09-11T17:56:25.216Z,21.66
2022-09-11T17:58:56.498Z,21.63
2022-09-11T18:01:25.511Z,21.62
2022-09-11T18:03:57.177Z,21.62
2022-09-11T18:06:29.826Z,21.60
2022-09-11T18:09:02.425Z,21.57
2022-09-11T18:11:31.138Z,21.51
2022-09-11T18:16:26.525Z,21.47
2022-09-11T18:18:54.760Z,21.43
2022-09-11T18:21:22.206Z,21.40
2022-09-11T18:23:50.188Z,21.36
2022-09-11T18:26:23.974Z,21.36
2022-09-11T18:28:55.925Z,21.36
2022-09-11T18:31:24.543Z,21.34
2022-09-11T18:33:55.728Z,21.33
2022-09-11T18:36:24.205Z,21.29
2022-09-11T18:38:53.495Z,21.31
2022-09-11T18:42:21.196Z,21.31
2022-09-11T18:47:14.539Z,21.25
2022-09-11T18:49:42.284Z,21.22
2022-09-11T18:52:09.817Z,21.22
2022-09-11T18:54:37.655Z,21.22
2022-09-11T18:57:05.354Z,21.21
2022-09-11T18:59:32.504Z,21.18
2022-09-11T19:02:00.356Z,21.15
2022-09-11T19:04:28.556Z,21.13
2022-09-11T19:06:55.933Z,21.14
2022-09-11T19:09:23.255Z,21.13
2022-09-11T19:11:55.517Z,21.11
2022-09-11T19:14:23.283Z,21.09
2022-09-11T19:16:50.605Z,21.07
2022-09-11T19:19:18.408Z,21.06
2022-09-11T19:21:46.025Z,21.05
2022-09-11T19:24:13.207Z,21.04
2022-09-11T19:26:43.986Z,21.02
2022-09-11T19:29:13.636Z,21.01
2022-09-11T19:31:41.637Z,20.98
2022-09-11T19:34:12.251Z,20.96
2022-09-11T19:36:39.887Z,20.95
2022-09-11T19:39:07.870Z,20.91
2022-09-11T19:41:37.976Z,20.91
2022-09-11T19:44:08.270Z,20.88
2022-09-11T19:46:36.905Z,20.86
2022-09-11T19:49:07.128Z,20.82
2022-09-11T19:51:37.676Z,20.83
2022-09-11T19:54:06.497Z,20.84
2022-09-11T19:56:36.588Z,20.82
2022-09-11T19:59:06.411Z,20.80
2022-09-11T20:01:34.692Z,20.78
2022-09-11T20:06:31.913Z,20.75
2022-09-11T20:09:31.499Z,20.75
2022-09-11T20:12:01.114Z,20.72
2022-09-11T20:14:30.330Z,20.71
2022-09-11T20:16:57.845Z,20.70
2022-09-11T20:19:25.615Z,20.69
2022-09-11T20:21:53.232Z,20.67
2022-09-11T20:24:30.175Z,20.65
2022-09-11T20:27:38.704Z,20.64
2022-09-11T20:30:07.946Z,20.63
2022-09-11T20:32:38.854Z,20.62
2022-09-11T20:35:07.676Z,20.61
2022-09-11T20:37:35.996Z,20.59
2022-09-11T20:43:41.773Z,20.53
2022-09-11T20:46:10.065Z,20.47
2022-09-11T20:48:37.386Z,20.46
2022-09-11T20:51:08.046Z,20.44
2022-09-11T20:56:04.614Z,20.41
2022-09-11T20:58:33.288Z,20.39
2022-09-11T21:01:01.000Z,20.37
2022-09-11T21:03:29.307Z,20.36
2022-09-11T21:05:57.014Z,20.35
2022-09-11T21:08:25.998Z,20.31
2022-09-11T21:15:48.857Z,20.24
2022-09-11T21:18:15.945Z,20.23
2022-09-11T21:20:43.462Z,20.21
2022-09-11T21:23:10.634Z,20.20
2022-09-11T21:25:40.771Z,20.17
2022-09-11T21:28:08.089Z,20.16
2022-09-11T21:30:39.023Z,20.16
2022-09-11T21:33:06.534Z,20.15
2022-09-11T21:35:33.529Z,20.12
2022-09-11T21:38:01.184Z,20.10
2022-09-11T21:40:28.261Z,20.05
2022-09-11T21:42:55.881Z,20.02
2022-09-11T21:47:51.891Z,19.93
2022-09-11T21:50:19.023Z,19.90
2022-09-11T21:52:46.212Z,19.87
2022-09-11T21:55:13.825Z,19.83
2022-09-11T21:57:41.121Z,19.82
2022-09-11T22:02:39.008Z,19.81
2022-09-11T22:05:07.708Z,19.78
2022-09-11T22:07:34.756Z,19.74
2022-09-11T22:10:02.586Z,19.71
2022-09-11T22:12:29.811Z,19.66
2022-09-11T22:22:18.136Z,19.61
2022-09-11T22:24:45.373Z,19.58
2022-09-11T22:27:15.734Z,19.57
2022-09-11T22:29:46.966Z,19.57
2022-09-11T22:39:35.413Z,19.50
2022-09-11T22:42:04.926Z,19.46
2022-09-11T22:44:32.056Z,19.45
2022-09-11T22:46:59.582Z,19.44
2022-09-11T22:49:27.542Z,19.41
2022-09-11T22:51:54.712Z,19.38
2022-09-11T22:54:22.114Z,19.36
2022-09-11T22:56:49.328Z,19.35
2022-09-11T22:59:16.446Z,19.31
2022-09-11T23:01:43.735Z,19.29
2022-09-11T23:06:47.998Z,19.28
2022-09-11T23:09:18.960Z,19.26
2022-09-11T23:11:46.972Z,19.24
2022-09-11T23:14:15.504Z,19.21
2022-09-11T23:16:43.205Z,19.20
2022-09-11T23:19:13.017Z,19.19
2022-09-11T23:21:40.231Z,19.19
2022-09-11T23:24:08.207Z,19.20
2022-09-11T23:26:35.396Z,19.19
2022-09-11T23:29:02.427Z,19.18
2022-09-11T23:31:31.903Z,19.17
2022-09-11T23:34:02.434Z,19.16
2022-09-11T23:36:31.395Z,19.16
2022-09-11T23:38:59.235Z,19.17
2022-09-11T23:41:27.098Z,19.16
2022-09-11T23:43:55.384Z,19.13
2022-09-11T23:46:22.440Z,19.13
2022-09-11T23:48:50.014Z,19.10
2022-09-11T23:51:17.643Z,19.10
2022-09-11T23:53:45.413Z,19.12
2022-09-11T23:56:15.765Z,19.13
2022-09-11T23:58:45.898Z,19.14
